sensor_id;sensor_type;location;lat;lon;timestamp;P1;durP1;ratioP1;P2;durP2;ratioP2
49592;SDS011;35499;51.482;4.264;2023-02-22T00:00:38;55.35;;;20.15;;
49592;SDS011;35499;51.482;4.264;2023-02-22T00:03:17;64.55;;;21.70;;
49592;SDS011;35499;51.482;4.264;2023-02-22T00:05:49;60.05;;;19.90;;
49592;SDS011;35499;51.482;4.264;2023-02-22T00:08:17;56.28;;;18.73;;
49592;SDS011;35499;51.482;4.264;2023-02-22T00:10:44;66.22;;;21.55;;
49592;SDS011;35499;51.482;4.264;2023-02-22T00:13:10;53.13;;;18.02;;
49592;SDS011;35499;51.482;4.264;2023-02-22T00:15:37;59.03;;;19.33;;
49592;SDS011;35499;51.482;4.264;2023-02-22T00:18:05;67.35;;;20.48;;
49592;SDS011;35499;51.482;4.264;2023-02-22T00:20:34;59.10;;;19.98;;
49592;SDS011;35499;51.482;4.264;2023-02-22T00:23:03;65.32;;;22.75;;
49592;SDS011;35499;51.482;4.264;2023-02-22T00:25:31;65.57;;;23.35;;
49592;SDS011;35499;51.482;4.264;2023-02-22T00:27:57;60.13;;;19.05;;
49592;SDS011;35499;51.482;4.264;2023-02-22T00:30:25;60.58;;;20.02;;
49592;SDS011;35499;51.482;4.264;2023-02-22T00:32:52;68.78;;;20.83;;
49592;SDS011;35499;51.482;4.264;2023-02-22T00:35:21;71.00;;;21.17;;
49592;SDS011;35499;51.482;4.264;2023-02-22T00:37:52;72.38;;;20.45;;
49592;SDS011;35499;51.482;4.264;2023-02-22T00:40:23;75.22;;;22.77;;
49592;SDS011;35499;51.482;4.264;2023-02-22T00:42:50;66.45;;;22.40;;
49592;SDS011;35499;51.482;4.264;2023-02-22T00:45:19;71.30;;;20.17;;
49592;SDS011;35499;51.482;4.264;2023-02-22T00:47:46;77.47;;;23.02;;
49592;SDS011;35499;51.482;4.264;2023-02-22T00:50:12;76.45;;;22.23;;
49592;SDS011;35499;51.482;4.264;2023-02-22T00:52:38;96.90;;;24.90;;
49592;SDS011;35499;51.482;4.264;2023-02-22T00:55:04;84.97;;;23.83;;
49592;SDS011;35499;51.482;4.264;2023-02-22T00:57:32;85.90;;;23.38;;
49592;SDS011;35499;51.482;4.264;2023-02-22T01:00:04;84.10;;;23.70;;
49592;SDS011;35499;51.482;4.264;2023-02-22T01:02:39;90.95;;;23.45;;
49592;SDS011;35499;51.482;4.264;2023-02-22T01:05:06;99.28;;;23.02;;
49592;SDS011;35499;51.482;4.264;2023-02-22T01:07:37;91.82;;;23.42;;
49592;SDS011;35499;51.482;4.264;2023-02-22T01:10:03;97.85;;;25.90;;
49592;SDS011;35499;51.482;4.264;2023-02-22T01:12:30;88.18;;;22.65;;
49592;SDS011;35499;51.482;4.264;2023-02-22T01:14:55;77.65;;;19.88;;
49592;SDS011;35499;51.482;4.264;2023-02-22T01:17:22;96.18;;;27.23;;
49592;SDS011;35499;51.482;4.264;2023-02-22T01:19:49;99.70;;;25.23;;
49592;SDS011;35499;51.482;4.264;2023-02-22T01:22:15;105.63;;;23.27;;
49592;SDS011;35499;51.482;4.264;2023-02-22T01:24:40;82.93;;;23.15;;
49592;SDS011;35499;51.482;4.264;2023-02-22T01:27:05;96.70;;;22.30;;
49592;SDS011;35499;51.482;4.264;2023-02-22T01:29:31;102.10;;;22.43;;
49592;SDS011;35499;51.482;4.264;2023-02-22T01:31:56;105.03;;;23.50;;
49592;SDS011;35499;51.482;4.264;2023-02-22T01:34:22;84.97;;;17.40;;
49592;SDS011;35499;51.482;4.264;2023-02-22T01:36:49;106.47;;;23.27;;
49592;SDS011;35499;51.482;4.264;2023-02-22T01:39:15;129.40;;;26.03;;
49592;SDS011;35499;51.482;4.264;2023-02-22T01:41:42;131.23;;;23.30;;
49592;SDS011;35499;51.482;4.264;2023-02-22T01:44:30;100.82;;;25.27;;
49592;SDS011;35499;51.482;4.264;2023-02-22T01:46:59;125.03;;;27.10;;
49592;SDS011;35499;51.482;4.264;2023-02-22T01:49:30;151.63;;;23.50;;
49592;SDS011;35499;51.482;4.264;2023-02-22T01:52:00;113.90;;;25.13;;
49592;SDS011;35499;51.482;4.264;2023-02-22T01:54:32;141.35;;;26.80;;
49592;SDS011;35499;51.482;4.264;2023-02-22T01:57:14;161.90;;;28.13;;
49592;SDS011;35499;51.482;4.264;2023-02-22T01:59:45;78.68;;;18.02;;
49592;SDS011;35499;51.482;4.264;2023-02-22T02:02:13;155.93;;;25.05;;
49592;SDS011;35499;51.482;4.264;2023-02-22T02:04:40;90.95;;;21.88;;
49592;SDS011;35499;51.482;4.264;2023-02-22T02:07:07;92.20;;;19.63;;
49592;SDS011;35499;51.482;4.264;2023-02-22T02:12:13;157.85;;;25.95;;
49592;SDS011;35499;51.482;4.264;2023-02-22T02:14:40;126.07;;;25.00;;
49592;SDS011;35499;51.482;4.264;2023-02-22T02:17:11;199.48;;;26.90;;
49592;SDS011;35499;51.482;4.264;2023-02-22T02:25:18;138.60;;;27.35;;
49592;SDS011;35499;51.482;4.264;2023-02-22T02:31:05;134.75;;;22.50;;
49592;SDS011;35499;51.482;4.264;2023-02-22T02:36:35;256.67;;;27.55;;
49592;SDS011;35499;51.482;4.264;2023-02-22T02:39:12;154.68;;;23.95;;
49592;SDS011;35499;51.482;4.264;2023-02-22T02:41:46;152.10;;;21.48;;
49592;SDS011;35499;51.482;4.264;2023-02-22T02:47:06;148.20;;;21.42;;
49592;SDS011;35499;51.482;4.264;2023-02-22T02:49:42;105.63;;;19.75;;
49592;SDS011;35499;51.482;4.264;2023-02-22T02:52:15;122.13;;;18.70;;
49592;SDS011;35499;51.482;4.264;2023-02-22T02:54:43;131.15;;;20.98;;
49592;SDS011;35499;51.482;4.264;2023-02-22T02:57:10;98.22;;;20.17;;
49592;SDS011;35499;51.482;4.264;2023-02-22T02:59:36;132.95;;;21.70;;
49592;SDS011;35499;51.482;4.264;2023-02-22T03:04:36;97.40;;;20.05;;
49592;SDS011;35499;51.482;4.264;2023-02-22T03:07:21;123.60;;;18.17;;
49592;SDS011;35499;51.482;4.264;2023-02-22T03:18:32;142.25;;;18.95;;
49592;SDS011;35499;51.482;4.264;2023-02-22T03:21:35;120.80;;;19.70;;
49592;SDS011;35499;51.482;4.264;2023-02-22T03:26:42;131.77;;;19.95;;
49592;SDS011;35499;51.482;4.264;2023-02-22T03:29:13;95.70;;;13.93;;
49592;SDS011;35499;51.482;4.264;2023-02-22T03:31:43;132.52;;;17.45;;
49592;SDS011;35499;51.482;4.264;2023-02-22T03:34:16;104.80;;;16.38;;
49592;SDS011;35499;51.482;4.264;2023-02-22T03:36:46;99.97;;;18.15;;
49592;SDS011;35499;51.482;4.264;2023-02-22T03:39:15;94.50;;;17.60;;
49592;SDS011;35499;51.482;4.264;2023-02-22T03:41:44;155.07;;;21.90;;
49592;SDS011;35499;51.482;4.264;2023-02-22T03:44:16;131.55;;;21.40;;
49592;SDS011;35499;51.482;4.264;2023-02-22T03:46:45;76.03;;;14.10;;
49592;SDS011;35499;51.482;4.264;2023-02-22T03:51:44;83.18;;;17.00;;
49592;SDS011;35499;51.482;4.264;2023-02-22T03:54:10;85.15;;;19.63;;
49592;SDS011;35499;51.482;4.264;2023-02-22T03:56:44;87.45;;;15.50;;
49592;SDS011;35499;51.482;4.264;2023-02-22T03:59:19;97.05;;;19.80;;
49592;SDS011;35499;51.482;4.264;2023-02-22T04:01:50;94.45;;;19.23;;
49592;SDS011;35499;51.482;4.264;2023-02-22T04:04:16;47.95;;;12.93;;
49592;SDS011;35499;51.482;4.264;2023-02-22T04:06:42;81.30;;;16.83;;
49592;SDS011;35499;51.482;4.264;2023-02-22T04:09:08;72.82;;;15.25;;
49592;SDS011;35499;51.482;4.264;2023-02-22T04:11:33;60.80;;;16.67;;
49592;SDS011;35499;51.482;4.264;2023-02-22T04:13:59;69.30;;;17.48;;
49592;SDS011;35499;51.482;4.264;2023-02-22T04:16:24;65.15;;;16.38;;
49592;SDS011;35499;51.482;4.264;2023-02-22T04:18:50;101.03;;;18.23;;
49592;SDS011;35499;51.482;4.264;2023-02-22T04:21:15;78.00;;;15.27;;
49592;SDS011;35499;51.482;4.264;2023-02-22T04:23:40;92.53;;;20.83;;
49592;SDS011;35499;51.482;4.264;2023-02-22T04:26:06;66.43;;;15.90;;
49592;SDS011;35499;51.482;4.264;2023-02-22T04:28:31;79.57;;;16.57;;
49592;SDS011;35499;51.482;4.264;2023-02-22T04:30:56;49.67;;;12.88;;
49592;SDS011;35499;51.482;4.264;2023-02-22T04:33:22;46.67;;;14.03;;
49592;SDS011;35499;51.482;4.264;2023-02-22T04:35:47;51.92;;;15.93;;
49592;SDS011;35499;51.482;4.264;2023-02-22T04:38:12;88.27;;;16.10;;
49592;SDS011;35499;51.482;4.264;2023-02-22T04:40:38;54.83;;;14.48;;
49592;SDS011;35499;51.482;4.264;2023-02-22T04:43:03;58.20;;;15.67;;
49592;SDS011;35499;51.482;4.264;2023-02-22T04:45:29;47.43;;;14.53;;
49592;SDS011;35499;51.482;4.264;2023-02-22T04:47:54;58.38;;;15.88;;
49592;SDS011;35499;51.482;4.264;2023-02-22T04:50:19;48.97;;;13.53;;
49592;SDS011;35499;51.482;4.264;2023-02-22T04:52:45;56.30;;;16.90;;
49592;SDS011;35499;51.482;4.264;2023-02-22T04:55:11;43.10;;;13.95;;
49592;SDS011;35499;51.482;4.264;2023-02-22T04:57:36;43.17;;;13.38;;
49592;SDS011;35499;51.482;4.264;2023-02-22T05:00:03;48.30;;;15.47;;
49592;SDS011;35499;51.482;4.264;2023-02-22T05:02:29;35.92;;;12.00;;
49592;SDS011;35499;51.482;4.264;2023-02-22T05:04:55;46.50;;;15.70;;
49592;SDS011;35499;51.482;4.264;2023-02-22T05:07:20;39.15;;;13.50;;
49592;SDS011;35499;51.482;4.264;2023-02-22T05:09:45;40.63;;;13.37;;
49592;SDS011;35499;51.482;4.264;2023-02-22T05:12:10;41.67;;;13.00;;
49592;SDS011;35499;51.482;4.264;2023-02-22T05:14:36;40.03;;;12.87;;
49592;SDS011;35499;51.482;4.264;2023-02-22T05:17:01;43.07;;;14.40;;
49592;SDS011;35499;51.482;4.264;2023-02-22T05:19:27;47.03;;;13.38;;
49592;SDS011;35499;51.482;4.264;2023-02-22T05:21:53;29.83;;;11.10;;
49592;SDS011;35499;51.482;4.264;2023-02-22T05:24:20;42.17;;;14.55;;
49592;SDS011;35499;51.482;4.264;2023-02-22T05:26:45;35.17;;;12.05;;
49592;SDS011;35499;51.482;4.264;2023-02-22T05:29:11;29.27;;;10.13;;
49592;SDS011;35499;51.482;4.264;2023-02-22T05:31:37;26.75;;;9.35;;
49592;SDS011;35499;51.482;4.264;2023-02-22T05:34:02;34.63;;;10.85;;
49592;SDS011;35499;51.482;4.264;2023-02-22T05:36:28;20.45;;;8.45;;
49592;SDS011;35499;51.482;4.264;2023-02-22T05:38:54;28.53;;;10.03;;
49592;SDS011;35499;51.482;4.264;2023-02-22T05:41:19;37.90;;;13.52;;
49592;SDS011;35499;51.482;4.264;2023-02-22T05:43:45;38.30;;;12.67;;
49592;SDS011;35499;51.482;4.264;2023-02-22T05:46:10;35.17;;;11.10;;
49592;SDS011;35499;51.482;4.264;2023-02-22T05:48:36;27.60;;;10.95;;
49592;SDS011;35499;51.482;4.264;2023-02-22T05:51:01;28.92;;;10.85;;
49592;SDS011;35499;51.482;4.264;2023-02-22T05:53:28;32.95;;;11.73;;
49592;SDS011;35499;51.482;4.264;2023-02-22T05:55:53;33.65;;;13.43;;
49592;SDS011;35499;51.482;4.264;2023-02-22T05:58:19;34.10;;;12.20;;
49592;SDS011;35499;51.482;4.264;2023-02-22T06:00:44;40.40;;;13.97;;
49592;SDS011;35499;51.482;4.264;2023-02-22T06:03:10;35.22;;;12.85;;
49592;SDS011;35499;51.482;4.264;2023-02-22T06:05:36;42.67;;;13.93;;
49592;SDS011;35499;51.482;4.264;2023-02-22T06:08:02;36.05;;;13.65;;
49592;SDS011;35499;51.482;4.264;2023-02-22T06:10:29;35.55;;;14.43;;
49592;SDS011;35499;51.482;4.264;2023-02-22T06:12:55;34.10;;;11.75;;
49592;SDS011;35499;51.482;4.264;2023-02-22T06:15:22;31.55;;;10.80;;
49592;SDS011;35499;51.482;4.264;2023-02-22T06:17:48;35.30;;;12.50;;
49592;SDS011;35499;51.482;4.264;2023-02-22T06:20:15;39.08;;;13.32;;
49592;SDS011;35499;51.482;4.264;2023-02-22T06:22:42;40.45;;;13.55;;
49592;SDS011;35499;51.482;4.264;2023-02-22T06:25:09;40.38;;;13.15;;
49592;SDS011;35499;51.482;4.264;2023-02-22T06:27:37;33.42;;;13.95;;
49592;SDS011;35499;51.482;4.264;2023-02-22T06:30:02;36.77;;;12.57;;
49592;SDS011;35499;51.482;4.264;2023-02-22T06:32:28;39.20;;;14.32;;
49592;SDS011;35499;51.482;4.264;2023-02-22T06:34:53;40.10;;;14.83;;
49592;SDS011;35499;51.482;4.264;2023-02-22T06:37:18;30.40;;;10.77;;
49592;SDS011;35499;51.482;4.264;2023-02-22T06:39:44;38.83;;;14.10;;
49592;SDS011;35499;51.482;4.264;2023-02-22T06:42:09;39.65;;;15.10;;
49592;SDS011;35499;51.482;4.264;2023-02-22T06:44:34;37.50;;;11.70;;
49592;SDS011;35499;51.482;4.264;2023-02-22T06:47:00;49.70;;;15.00;;
49592;SDS011;35499;51.482;4.264;2023-02-22T06:49:25;42.80;;;14.97;;
49592;SDS011;35499;51.482;4.264;2023-02-22T06:51:51;37.25;;;13.63;;
49592;SDS011;35499;51.482;4.264;2023-02-22T06:54:17;43.38;;;14.65;;
49592;SDS011;35499;51.482;4.264;2023-02-22T06:56:42;48.00;;;17.13;;
49592;SDS011;35499;51.482;4.264;2023-02-22T06:59:08;42.60;;;13.75;;
49592;SDS011;35499;51.482;4.264;2023-02-22T07:01:33;40.47;;;13.60;;
49592;SDS011;35499;51.482;4.264;2023-02-22T07:03:59;42.92;;;15.02;;
49592;SDS011;35499;51.482;4.264;2023-02-22T07:06:25;34.23;;;13.77;;
49592;SDS011;35499;51.482;4.264;2023-02-22T07:08:50;41.27;;;13.70;;
49592;SDS011;35499;51.482;4.264;2023-02-22T07:11:15;39.87;;;13.67;;
49592;SDS011;35499;51.482;4.264;2023-02-22T07:13:41;41.70;;;13.15;;
49592;SDS011;35499;51.482;4.264;2023-02-22T07:16:06;43.77;;;14.83;;
49592;SDS011;35499;51.482;4.264;2023-02-22T07:18:31;35.00;;;12.17;;
49592;SDS011;35499;51.482;4.264;2023-02-22T07:20:57;43.43;;;13.10;;
49592;SDS011;35499;51.482;4.264;2023-02-22T07:23:22;31.15;;;11.30;;
49592;SDS011;35499;51.482;4.264;2023-02-22T07:25:48;31.17;;;11.50;;
49592;SDS011;35499;51.482;4.264;2023-02-22T07:28:14;29.45;;;11.25;;
49592;SDS011;35499;51.482;4.264;2023-02-22T07:30:40;36.85;;;14.20;;
49592;SDS011;35499;51.482;4.264;2023-02-22T07:33:06;38.83;;;12.90;;
49592;SDS011;35499;51.482;4.264;2023-02-22T07:35:35;32.28;;;11.50;;
49592;SDS011;35499;51.482;4.264;2023-02-22T07:38:03;35.17;;;12.70;;
49592;SDS011;35499;51.482;4.264;2023-02-22T07:40:31;20.75;;;8.57;;
49592;SDS011;35499;51.482;4.264;2023-02-22T07:43:05;30.05;;;12.82;;
49592;SDS011;35499;51.482;4.264;2023-02-22T07:45:38;31.52;;;11.73;;
49592;SDS011;35499;51.482;4.264;2023-02-22T07:48:04;26.03;;;9.47;;
49592;SDS011;35499;51.482;4.264;2023-02-22T07:50:31;23.15;;;9.63;;
49592;SDS011;35499;51.482;4.264;2023-02-22T07:52:59;32.60;;;9.95;;
49592;SDS011;35499;51.482;4.264;2023-02-22T07:55:27;31.15;;;12.48;;
49592;SDS011;35499;51.482;4.264;2023-02-22T07:57:55;22.77;;;8.70;;
49592;SDS011;35499;51.482;4.264;2023-02-22T08:00:23;28.38;;;10.32;;
49592;SDS011;35499;51.482;4.264;2023-02-22T08:02:57;25.48;;;10.63;;
49592;SDS011;35499;51.482;4.264;2023-02-22T08:05:25;26.40;;;11.15;;
49592;SDS011;35499;51.482;4.264;2023-02-22T08:07:51;28.48;;;11.90;;
49592;SDS011;35499;51.482;4.264;2023-02-22T08:10:17;31.17;;;11.47;;
49592;SDS011;35499;51.482;4.264;2023-02-22T08:12:46;30.83;;;11.90;;
49592;SDS011;35499;51.482;4.264;2023-02-22T08:15:15;24.85;;;10.27;;
49592;SDS011;35499;51.482;4.264;2023-02-22T08:17:42;26.25;;;11.20;;
49592;SDS011;35499;51.482;4.264;2023-02-22T08:20:07;24.73;;;10.67;;
49592;SDS011;35499;51.482;4.264;2023-02-22T08:22:33;25.77;;;11.68;;
49592;SDS011;35499;51.482;4.264;2023-02-22T08:24:58;24.47;;;9.23;;
49592;SDS011;35499;51.482;4.264;2023-02-22T08:27:24;29.03;;;10.33;;
49592;SDS011;35499;51.482;4.264;2023-02-22T08:29:51;23.05;;;9.65;;
49592;SDS011;35499;51.482;4.264;2023-02-22T08:32:17;26.60;;;10.43;;
49592;SDS011;35499;51.482;4.264;2023-02-22T08:34:43;20.48;;;9.35;;
49592;SDS011;35499;51.482;4.264;2023-02-22T08:37:09;20.83;;;8.95;;
49592;SDS011;35499;51.482;4.264;2023-02-22T08:39:34;23.52;;;9.35;;
49592;SDS011;35499;51.482;4.264;2023-02-22T08:42:00;21.45;;;8.07;;
49592;SDS011;35499;51.482;4.264;2023-02-22T08:44:25;23.27;;;9.90;;
49592;SDS011;35499;51.482;4.264;2023-02-22T08:46:50;26.67;;;9.60;;
49592;SDS011;35499;51.482;4.264;2023-02-22T08:49:16;19.93;;;7.87;;
49592;SDS011;35499;51.482;4.264;2023-02-22T08:51:41;21.27;;;8.75;;
49592;SDS011;35499;51.482;4.264;2023-02-22T08:54:07;23.95;;;10.98;;
49592;SDS011;35499;51.482;4.264;2023-02-22T08:56:32;19.02;;;8.80;;
49592;SDS011;35499;51.482;4.264;2023-02-22T08:58:58;21.25;;;9.93;;
49592;SDS011;35499;51.482;4.264;2023-02-22T09:01:23;22.80;;;9.87;;
49592;SDS011;35499;51.482;4.264;2023-02-22T09:03:49;26.25;;;9.98;;
49592;SDS011;35499;51.482;4.264;2023-02-22T09:06:15;24.40;;;8.98;;
49592;SDS011;35499;51.482;4.264;2023-02-22T09:08:41;17.15;;;7.72;;
49592;SDS011;35499;51.482;4.264;2023-02-22T09:11:06;22.93;;;10.83;;
49592;SDS011;35499;51.482;4.264;2023-02-22T09:13:31;22.30;;;9.43;;
49592;SDS011;35499;51.482;4.264;2023-02-22T09:15:57;22.00;;;9.40;;
49592;SDS011;35499;51.482;4.264;2023-02-22T09:18:22;22.67;;;9.50;;
49592;SDS011;35499;51.482;4.264;2023-02-22T09:20:47;20.27;;;8.85;;
49592;SDS011;35499;51.482;4.264;2023-02-22T09:23:13;20.40;;;9.17;;
49592;SDS011;35499;51.482;4.264;2023-02-22T09:25:38;20.70;;;11.27;;
49592;SDS011;35499;51.482;4.264;2023-02-22T09:28:04;21.90;;;9.75;;
49592;SDS011;35499;51.482;4.264;2023-02-22T09:30:33;18.75;;;8.13;;
49592;SDS011;35499;51.482;4.264;2023-02-22T09:33:03;21.00;;;9.45;;
49592;SDS011;35499;51.482;4.264;2023-02-22T09:35:30;21.90;;;10.18;;
49592;SDS011;35499;51.482;4.264;2023-02-22T09:37:59;22.17;;;9.40;;
49592;SDS011;35499;51.482;4.264;2023-02-22T09:40:27;21.73;;;8.95;;
49592;SDS011;35499;51.482;4.264;2023-02-22T09:48:15;19.92;;;8.77;;
49592;SDS011;35499;51.482;4.264;2023-02-22T09:50:43;22.40;;;9.25;;
49592;SDS011;35499;51.482;4.264;2023-02-22T09:56:10;22.95;;;9.00;;
49592;SDS011;35499;51.482;4.264;2023-02-22T09:58:39;19.88;;;9.20;;
49592;SDS011;35499;51.482;4.264;2023-02-22T10:04:37;23.08;;;9.50;;
49592;SDS011;35499;51.482;4.264;2023-02-22T10:09:54;22.40;;;9.82;;
49592;SDS011;35499;51.482;4.264;2023-02-22T10:15:07;17.92;;;8.80;;
49592;SDS011;35499;51.482;4.264;2023-02-22T10:18:01;22.25;;;10.48;;
49592;SDS011;35499;51.482;4.264;2023-02-22T10:23:34;22.33;;;10.63;;
49592;SDS011;35499;51.482;4.264;2023-02-22T10:26:04;22.13;;;10.07;;
49592;SDS011;35499;51.482;4.264;2023-02-22T10:28:45;21.42;;;9.68;;
49592;SDS011;35499;51.482;4.264;2023-02-22T10:31:22;20.48;;;9.77;;
49592;SDS011;35499;51.482;4.264;2023-02-22T10:33:54;21.13;;;9.90;;
49592;SDS011;35499;51.482;4.264;2023-02-22T10:36:23;22.70;;;9.05;;
49592;SDS011;35499;51.482;4.264;2023-02-22T10:38:52;19.42;;;10.90;;
49592;SDS011;35499;51.482;4.264;2023-02-22T10:41:23;20.98;;;9.65;;
49592;SDS011;35499;51.482;4.264;2023-02-22T10:43:55;17.92;;;9.32;;
49592;SDS011;35499;51.482;4.264;2023-02-22T10:46:21;21.00;;;9.90;;
49592;SDS011;35499;51.482;4.264;2023-02-22T10:48:50;17.50;;;8.50;;
49592;SDS011;35499;51.482;4.264;2023-02-22T10:51:18;20.08;;;9.82;;
49592;SDS011;35499;51.482;4.264;2023-02-22T10:53:44;19.10;;;9.23;;
49592;SDS011;35499;51.482;4.264;2023-02-22T10:56:22;19.35;;;10.88;;
49592;SDS011;35499;51.482;4.264;2023-02-22T11:01:37;19.90;;;11.07;;
49592;SDS011;35499;51.482;4.264;2023-02-22T11:06:36;22.05;;;11.38;;
49592;SDS011;35499;51.482;4.264;2023-02-22T11:09:03;21.48;;;9.25;;
49592;SDS011;35499;51.482;4.264;2023-02-22T11:11:34;24.48;;;10.40;;
49592;SDS011;35499;51.482;4.264;2023-02-22T11:14:00;19.40;;;9.05;;
49592;SDS011;35499;51.482;4.264;2023-02-22T11:16:31;17.33;;;10.50;;
49592;SDS011;35499;51.482;4.264;2023-02-22T11:19:11;14.77;;;8.95;;
49592;SDS011;35499;51.482;4.264;2023-02-22T11:21:36;19.77;;;9.82;;
49592;SDS011;35499;51.482;4.264;2023-02-22T11:24:07;20.25;;;9.93;;
49592;SDS011;35499;51.482;4.264;2023-02-22T11:26:35;21.02;;;11.07;;
49592;SDS011;35499;51.482;4.264;2023-02-22T11:29:09;16.88;;;10.05;;
49592;SDS011;35499;51.482;4.264;2023-02-22T11:31:43;21.75;;;10.60;;
49592;SDS011;35499;51.482;4.264;2023-02-22T11:34:30;16.38;;;9.73;;
49592;SDS011;35499;51.482;4.264;2023-02-22T11:39:42;18.30;;;9.68;;
49592;SDS011;35499;51.482;4.264;2023-02-22T11:42:21;18.95;;;9.73;;
49592;SDS011;35499;51.482;4.264;2023-02-22T11:44:55;18.58;;;10.65;;
49592;SDS011;35499;51.482;4.264;2023-02-22T11:47:34;16.88;;;9.27;;
49592;SDS011;35499;51.482;4.264;2023-02-22T11:50:09;18.85;;;10.32;;
49592;SDS011;35499;51.482;4.264;2023-02-22T11:52:43;22.75;;;12.73;;
49592;SDS011;35499;51.482;4.264;2023-02-22T11:55:58;20.25;;;11.77;;
49592;SDS011;35499;51.482;4.264;2023-02-22T11:58:29;20.25;;;12.40;;
49592;SDS011;35499;51.482;4.264;2023-02-22T12:04:08;21.13;;;11.27;;
49592;SDS011;35499;51.482;4.264;2023-02-22T12:14:33;22.25;;;12.15;;
49592;SDS011;35499;51.482;4.264;2023-02-22T12:17:32;25.95;;;13.32;;
49592;SDS011;35499;51.482;4.264;2023-02-22T12:22:38;25.17;;;14.48;;
49592;SDS011;35499;51.482;4.264;2023-02-22T12:25:16;25.98;;;14.32;;
49592;SDS011;35499;51.482;4.264;2023-02-22T12:27:46;24.45;;;13.13;;
49592;SDS011;35499;51.482;4.264;2023-02-22T12:30:25;26.25;;;14.63;;
49592;SDS011;35499;51.482;4.264;2023-02-22T12:32:54;26.13;;;14.70;;
49592;SDS011;35499;51.482;4.264;2023-02-22T12:35:27;29.15;;;15.75;;
49592;SDS011;35499;51.482;4.264;2023-02-22T12:41:04;25.35;;;12.82;;
49592;SDS011;35499;51.482;4.264;2023-02-22T12:46:26;28.73;;;14.63;;
49592;SDS011;35499;51.482;4.264;2023-02-22T12:51:36;27.02;;;15.35;;
49592;SDS011;35499;51.482;4.264;2023-02-22T12:54:15;31.05;;;16.33;;
49592;SDS011;35499;51.482;4.264;2023-02-22T12:56:58;29.48;;;16.50;;
49592;SDS011;35499;51.482;4.264;2023-02-22T12:59:34;29.50;;;15.68;;
49592;SDS011;35499;51.482;4.264;2023-02-22T13:04:47;32.05;;;17.08;;
49592;SDS011;35499;51.482;4.264;2023-02-22T13:07:17;30.35;;;17.77;;
49592;SDS011;35499;51.482;4.264;2023-02-22T13:09:55;41.13;;;18.45;;
49592;SDS011;35499;51.482;4.264;2023-02-22T13:15:16;34.40;;;18.10;;
49592;SDS011;35499;51.482;4.264;2023-02-22T13:17:52;33.90;;;18.50;;
49592;SDS011;35499;51.482;4.264;2023-02-22T13:20:25;35.15;;;18.02;;
49592;SDS011;35499;51.482;4.264;2023-02-22T13:28:32;34.75;;;19.75;;
49592;SDS011;35499;51.482;4.264;2023-02-22T13:42:11;34.33;;;19.92;;
49592;SDS011;35499;51.482;4.264;2023-02-22T13:44:51;31.98;;;19.85;;
49592;SDS011;35499;51.482;4.264;2023-02-22T13:47:41;30.70;;;18.10;;
49592;SDS011;35499;51.482;4.264;2023-02-22T13:53:03;39.13;;;21.23;;
49592;SDS011;35499;51.482;4.264;2023-02-22T13:55:32;36.53;;;21.83;;
49592;SDS011;35499;51.482;4.264;2023-02-22T13:58:02;40.75;;;21.35;;
49592;SDS011;35499;51.482;4.264;2023-02-22T14:00:40;37.28;;;21.27;;
49592;SDS011;35499;51.482;4.264;2023-02-22T14:08:07;38.22;;;23.48;;
49592;SDS011;35499;51.482;4.264;2023-02-22T14:16:31;51.05;;;25.75;;
49592;SDS011;35499;51.482;4.264;2023-02-22T14:21:26;50.30;;;25.63;;
49592;SDS011;35499;51.482;4.264;2023-02-22T14:23:51;50.38;;;25.55;;
49592;SDS011;35499;51.482;4.264;2023-02-22T14:26:26;55.83;;;27.88;;
49592;SDS011;35499;51.482;4.264;2023-02-22T14:28:55;56.17;;;27.05;;
49592;SDS011;35499;51.482;4.264;2023-02-22T14:31:28;61.83;;;27.90;;
49592;SDS011;35499;51.482;4.264;2023-02-22T14:36:25;62.10;;;30.35;;
49592;SDS011;35499;51.482;4.264;2023-02-22T14:38:55;61.40;;;27.95;;
49592;SDS011;35499;51.482;4.264;2023-02-22T14:41:26;61.40;;;30.10;;
49592;SDS011;35499;51.482;4.264;2023-02-22T14:43:54;59.75;;;29.55;;
49592;SDS011;35499;51.482;4.264;2023-02-22T14:46:23;55.05;;;24.98;;
49592;SDS011;35499;51.482;4.264;2023-02-22T14:48:53;60.70;;;28.33;;
49592;SDS011;35499;51.482;4.264;2023-02-22T14:51:28;62.10;;;30.63;;
49592;SDS011;35499;51.482;4.264;2023-02-22T14:54:07;63.33;;;28.95;;
49592;SDS011;35499;51.482;4.264;2023-02-22T14:56:39;59.25;;;29.08;;
49592;SDS011;35499;51.482;4.264;2023-02-22T14:59:21;61.63;;;29.38;;
49592;SDS011;35499;51.482;4.264;2023-02-22T15:02:04;53.50;;;27.35;;
49592;SDS011;35499;51.482;4.264;2023-02-22T15:04:31;61.13;;;28.58;;
49592;SDS011;35499;51.482;4.264;2023-02-22T15:06:57;57.43;;;28.20;;
49592;SDS011;35499;51.482;4.264;2023-02-22T15:09:30;63.33;;;28.33;;
49592;SDS011;35499;51.482;4.264;2023-02-22T15:14:26;57.90;;;28.43;;
49592;SDS011;35499;51.482;4.264;2023-02-22T15:16:52;68.15;;;28.55;;
49592;SDS011;35499;51.482;4.264;2023-02-22T15:19:23;63.92;;;30.13;;
49592;SDS011;35499;51.482;4.264;2023-02-22T15:21:52;64.50;;;28.58;;
49592;SDS011;35499;51.482;4.264;2023-02-22T15:24:35;65.00;;;30.13;;
49592;SDS011;35499;51.482;4.264;2023-02-22T15:27:06;70.78;;;30.20;;
49592;SDS011;35499;51.482;4.264;2023-02-22T15:29:40;67.43;;;28.45;;
49592;SDS011;35499;51.482;4.264;2023-02-22T15:32:17;71.80;;;29.45;;
49592;SDS011;35499;51.482;4.264;2023-02-22T15:34:53;72.13;;;30.08;;
49592;SDS011;35499;51.482;4.264;2023-02-22T15:37:22;66.85;;;28.73;;
49592;SDS011;35499;51.482;4.264;2023-02-22T15:39:49;73.82;;;32.17;;
49592;SDS011;35499;51.482;4.264;2023-02-22T15:42:23;74.00;;;32.03;;
49592;SDS011;35499;51.482;4.264;2023-02-22T15:44:50;72.28;;;33.03;;
49592;SDS011;35499;51.482;4.264;2023-02-22T15:55:53;78.22;;;30.88;;
49592;SDS011;35499;51.482;4.264;2023-02-22T15:58:24;78.25;;;32.78;;
49592;SDS011;35499;51.482;4.264;2023-02-22T16:00:58;76.13;;;31.73;;
49592;SDS011;35499;51.482;4.264;2023-02-22T16:03:37;75.70;;;30.08;;
49592;SDS011;35499;51.482;4.264;2023-02-22T16:06:10;71.13;;;30.55;;
49592;SDS011;35499;51.482;4.264;2023-02-22T16:08:43;73.90;;;30.95;;
49592;SDS011;35499;51.482;4.264;2023-02-22T16:11:34;73.50;;;30.30;;
49592;SDS011;35499;51.482;4.264;2023-02-22T16:14:23;73.25;;;29.55;;
49592;SDS011;35499;51.482;4.264;2023-02-22T16:17:18;74.80;;;29.98;;
49592;SDS011;35499;51.482;4.264;2023-02-22T16:19:54;71.45;;;30.33;;
49592;SDS011;35499;51.482;4.264;2023-02-22T16:22:29;68.68;;;26.83;;
49592;SDS011;35499;51.482;4.264;2023-02-22T16:27:46;71.15;;;30.60;;
49592;SDS011;35499;51.482;4.264;2023-02-22T16:32:54;76.22;;;31.17;;
49592;SDS011;35499;51.482;4.264;2023-02-22T16:35:21;79.78;;;29.65;;
49592;SDS011;35499;51.482;4.264;2023-02-22T16:38:02;77.53;;;31.33;;
49592;SDS011;35499;51.482;4.264;2023-02-22T16:40:37;83.78;;;29.58;;
49592;SDS011;35499;51.482;4.264;2023-02-22T16:43:06;98.53;;;33.85;;
49592;SDS011;35499;51.482;4.264;2023-02-22T16:45:34;88.68;;;31.08;;
49592;SDS011;35499;51.482;4.264;2023-02-22T16:48:00;83.15;;;32.15;;
49592;SDS011;35499;51.482;4.264;2023-02-22T16:50:29;84.25;;;28.70;;
49592;SDS011;35499;51.482;4.264;2023-02-22T16:52:54;77.70;;;29.30;;
49592;SDS011;35499;51.482;4.264;2023-02-22T16:55:22;80.53;;;28.98;;
49592;SDS011;35499;51.482;4.264;2023-02-22T16:57:48;84.97;;;30.42;;